createdAt,value
2024-03-14T00:00:44.523Z,11.96
2024-03-14T00:05:46.484Z,11.98
2024-03-14T00:10:52.366Z,11.99
2024-03-14T00:15:55.324Z,12.11
2024-03-14T00:20:57.094Z,12.12
2024-03-14T00:25:58.792Z,12.07
2024-03-14T00:31:00.872Z,12.10
2024-03-14T00:36:03.023Z,12.16
2024-03-14T00:41:05.005Z,12.15
2024-03-14T00:46:06.954Z,12.17
2024-03-14T00:51:11.563Z,12.22
2024-03-14T00:56:14.986Z,12.33
2024-03-14T01:01:16.770Z,12.40
2024-03-14T01:06:18.519Z,12.47
2024-03-14T01:11:20.571Z,12.44
2024-03-14T01:16:22.467Z,12.41
2024-03-14T01:21:24.288Z,12.44
2024-03-14T01:26:27.624Z,12.46
2024-03-14T01:31:30.315Z,12.43
2024-03-14T01:36:32.103Z,12.42
2024-03-14T01:41:33.907Z,12.39
2024-03-14T01:46:36.488Z,12.37
2024-03-14T01:51:38.507Z,12.39
2024-03-14T01:56:58.926Z,12.46
2024-03-14T02:02:00.913Z,12.52
2024-03-14T02:07:15.202Z,12.45
2024-03-14T02:12:17.077Z,12.35
2024-03-14T02:17:18.832Z,12.37
2024-03-14T02:22:23.679Z,12.41
2024-03-14T02:27:25.560Z,12.39
2024-03-14T02:32:27.691Z,12.32
2024-03-14T02:37:31.758Z,12.32
2024-03-14T02:42:33.650Z,12.40
2024-03-14T02:47:36.893Z,12.44
2024-03-14T02:52:39.442Z,12.38
2024-03-14T02:57:42.188Z,12.41
2024-03-14T03:02:47.104Z,12.42
2024-03-14T03:07:50.244Z,12.43
2024-03-14T03:12:52.038Z,12.34
2024-03-14T03:17:53.802Z,12.24
2024-03-14T03:23:07.907Z,12.07
2024-03-14T03:28:13.300Z,11.89
2024-03-14T03:33:19.880Z,11.97
2024-03-14T03:38:21.659Z,12.05
2024-03-14T03:43:23.589Z,12.08
2024-03-14T03:48:25.381Z,12.14
2024-03-14T03:53:27.196Z,12.18
2024-03-14T03:58:28.888Z,12.20
2024-03-14T04:03:31.261Z,12.22
2024-03-14T04:08:33.032Z,12.20
2024-03-14T04:13:35.264Z,12.23
2024-03-14T04:18:36.979Z,12.29
2024-03-14T04:23:38.687Z,12.34
2024-03-14T04:28:40.358Z,12.36
2024-03-14T04:33:42.245Z,12.27
2024-03-14T04:38:44.115Z,12.18
2024-03-14T04:43:45.988Z,12.29
2024-03-14T04:48:47.740Z,12.38
2024-03-14T04:53:49.532Z,12.43
2024-03-14T04:58:51.799Z,12.45
2024-03-14T05:03:53.517Z,12.45
2024-03-14T05:08:55.854Z,12.44
2024-03-14T05:13:58.172Z,12.39
2024-03-14T05:19:00.767Z,12.30
2024-03-14T05:24:02.543Z,12.34
2024-03-14T05:29:04.597Z,12.29
2024-03-14T05:34:08.000Z,12.29
2024-03-14T05:39:10.521Z,12.38
2024-03-14T05:44:12.343Z,12.33
2024-03-14T05:49:14.270Z,12.35
2024-03-14T05:54:16.396Z,12.35
2024-03-14T05:59:18.255Z,12.37
2024-03-14T06:04:22.662Z,12.31
2024-03-14T06:09:34.554Z,12.39
2024-03-14T06:14:37.181Z,12.44
2024-03-14T06:19:39.196Z,12.55
2024-03-14T06:24:40.928Z,12.57
2024-03-14T06:29:42.970Z,12.60
2024-03-14T06:34:45.563Z,12.62
2024-03-14T06:39:58.115Z,12.67
2024-03-14T06:45:04.697Z,12.64
2024-03-14T06:50:07.667Z,12.59
2024-03-14T06:55:11.326Z,12.56
2024-03-14T07:00:14.020Z,12.57
2024-03-14T07:05:16.930Z,12.66
2024-03-14T07:10:20.439Z,12.68
2024-03-14T07:15:23.437Z,12.65
2024-03-14T07:20:34.391Z,12.77
2024-03-14T07:25:36.254Z,12.80
2024-03-14T07:30:38.144Z,12.81
2024-03-14T07:35:46.093Z,12.79
2024-03-14T07:40:48.038Z,12.87
2024-03-14T07:45:50.166Z,13.03
2024-03-14T07:50:52.290Z,13.13
2024-03-14T07:55:54.133Z,13.18
2024-03-14T08:00:57.112Z,13.12
2024-03-14T08:06:00.509Z,13.17
2024-03-14T08:11:04.599Z,13.25
2024-03-14T08:16:09.972Z,13.34
2024-03-14T08:21:14.297Z,13.43
2024-03-14T08:26:18.717Z,13.46
2024-03-14T08:31:22.838Z,13.48
2024-03-14T08:36:24.683Z,13.54
2024-03-14T08:41:26.460Z,13.53
2024-03-14T08:46:28.153Z,13.50
2024-03-14T08:51:29.960Z,13.61
2024-03-14T08:56:31.735Z,13.60
2024-03-14T09:01:33.670Z,13.64
2024-03-14T09:06:35.931Z,13.75
2024-03-14T09:11:37.736Z,13.80
2024-03-14T09:16:39.600Z,13.88
2024-03-14T09:21:41.414Z,13.88
2024-03-14T09:26:43.642Z,13.94
2024-03-14T09:31:45.537Z,14.09
2024-03-14T09:36:51.750Z,14.25
2024-03-14T09:41:53.573Z,14.35
2024-03-14T09:47:08.231Z,14.45
2024-03-14T09:52:10.159Z,14.54
2024-03-14T09:57:13.280Z,14.64
2024-03-14T10:02:19.383Z,14.75
2024-03-14T10:07:21.570Z,14.84
2024-03-14T10:12:23.351Z,14.91
2024-03-14T10:17:26.321Z,14.95
2024-03-14T10:22:28.886Z,14.92
2024-03-14T10:27:31.081Z,14.89
2024-03-14T10:32:33.337Z,14.80
2024-03-14T10:37:36.012Z,14.70
2024-03-14T10:42:38.963Z,14.61
2024-03-14T10:47:42.688Z,14.57
2024-03-14T10:52:50.432Z,14.61
2024-03-14T10:57:52.965Z,14.61
2024-03-14T11:02:56.967Z,14.56
2024-03-14T11:08:02.608Z,14.52
2024-03-14T11:13:22.153Z,14.50
2024-03-14T11:18:34.348Z,14.46
2024-03-14T11:23:38.559Z,14.43
2024-03-14T11:28:42.700Z,14.46
2024-03-14T11:33:46.843Z,14.54
2024-03-14T11:38:48.815Z,14.62
2024-03-14T11:43:54.048Z,14.63
2024-03-14T11:48:56.265Z,14.60
2024-03-14T11:54:01.381Z,14.66
2024-03-14T11:59:03.379Z,14.63
2024-03-14T12:04:07.997Z,14.70
2024-03-14T12:09:20.953Z,14.75
2024-03-14T12:14:23.510Z,14.72
2024-03-14T12:19:27.082Z,14.70
2024-03-14T12:24:29.255Z,14.67
2024-03-14T12:29:31.596Z,14.61
2024-03-14T12:34:33.762Z,14.56
2024-03-14T12:39:36.436Z,14.64
2024-03-14T12:44:38.569Z,14.70
2024-03-14T12:49:40.320Z,14.78
2024-03-14T12:54:42.218Z,14.83
2024-03-14T12:59:48.990Z,14.89
2024-03-14T13:04:51.717Z,14.94
2024-03-14T13:10:13.816Z,14.96
2024-03-14T13:15:24.435Z,14.89
2024-03-14T13:20:30.771Z,14.89
2024-03-14T13:25:32.704Z,14.99
2024-03-14T13:30:34.761Z,15.01
2024-03-14T13:35:40.286Z,15.02
2024-03-14T13:40:42.062Z,15.13
2024-03-14T13:45:48.102Z,15.20
2024-03-14T13:50:51.709Z,15.28
2024-03-14T13:55:57.618Z,15.31
2024-03-14T14:01:01.075Z,15.33
2024-03-14T14:06:05.194Z,15.33
2024-03-14T14:11:08.424Z,15.37
2024-03-14T14:16:16.596Z,15.44
2024-03-14T14:21:18.680Z,15.42
2024-03-14T14:26:20.380Z,15.43
2024-03-14T14:31:22.892Z,15.40
2024-03-14T14:36:24.678Z,15.39
2024-03-14T14:41:26.445Z,15.40
2024-03-14T14:46:28.353Z,15.45
2024-03-14T14:51:30.196Z,15.51
2024-03-14T14:56:31.856Z,15.53
2024-03-14T15:01:34.133Z,15.48
2024-03-14T15:06:37.030Z,15.47
2024-03-14T15:11:38.999Z,15.55
2024-03-14T15:16:40.842Z,15.60
2024-03-14T15:21:42.585Z,15.61
2024-03-14T15:26:45.194Z,15.68
2024-03-14T15:31:46.956Z,15.72
2024-03-14T15:36:48.661Z,15.76
2024-03-14T15:41:51.514Z,15.75
2024-03-14T15:46:53.208Z,15.76
2024-03-14T15:51:55.929Z,15.79
2024-03-14T15:56:57.778Z,15.75
2024-03-14T16:02:01.568Z,15.77
2024-03-14T16:07:07.154Z,15.72
2024-03-14T16:12:09.666Z,15.63
2024-03-14T16:17:12.201Z,15.66
2024-03-14T16:22:14.654Z,15.66
2024-03-14T16:27:17.525Z,15.67
2024-03-14T16:32:19.231Z,15.68
2024-03-14T16:37:21.201Z,15.66
2024-03-14T16:42:25.612Z,15.64
2024-03-14T16:47:27.793Z,15.59
2024-03-14T16:52:29.689Z,15.57
2024-03-14T16:57:32.467Z,15.59
2024-03-14T17:02:34.403Z,15.56
2024-03-14T17:07:36.089Z,15.61
2024-03-14T17:12:39.726Z,15.58
2024-03-14T17:17:41.595Z,15.56
2024-03-14T17:22:47.398Z,15.55
2024-03-14T17:27:51.686Z,15.55
2024-03-14T17:32:55.124Z,15.51
2024-03-14T17:37:57.740Z,15.47
2024-03-14T17:42:59.658Z,15.45
2024-03-14T17:48:01.676Z,15.44
2024-03-14T17:53:07.045Z,15.41
2024-03-14T17:58:10.145Z,15.36
2024-03-14T18:03:12.307Z,15.35
2024-03-14T18:08:14.708Z,15.34
2024-03-14T18:13:17.386Z,15.34
2024-03-14T18:18:20.207Z,15.33
2024-03-14T18:23:22.279Z,15.28
2024-03-14T18:28:24.782Z,15.24
2024-03-14T18:33:26.742Z,15.19
2024-03-14T18:38:28.519Z,15.10
2024-03-14T18:43:30.923Z,15.07
2024-03-14T18:48:32.791Z,15.00
2024-03-14T18:53:34.590Z,14.91
2024-03-14T18:58:36.547Z,14.73
2024-03-14T19:03:39.569Z,14.69
2024-03-14T19:08:41.428Z,14.72
2024-03-14T19:13:45.547Z,14.71
2024-03-14T19:18:47.534Z,14.69
2024-03-14T19:23:49.656Z,14.68
2024-03-14T19:28:53.159Z,14.64
2024-03-14T19:33:54.900Z,14.59
2024-03-14T19:38:59.187Z,14.55
2024-03-14T19:44:03.394Z,14.51
2024-03-14T19:49:05.764Z,14.44
2024-03-14T19:54:07.917Z,14.37
2024-03-14T19:59:09.719Z,14.34
2024-03-14T20:04:11.920Z,14.32
2024-03-14T20:09:14.872Z,14.24
2024-03-14T20:14:16.692Z,14.12
2024-03-14T20:19:19.606Z,14.06
2024-03-14T20:24:22.045Z,14.00
2024-03-14T20:29:24.931Z,13.92
2024-03-14T20:34:28.133Z,13.85
2024-03-14T20:39:42.153Z,13.72
2024-03-14T20:44:45.848Z,13.57
2024-03-14T20:49:47.969Z,13.43
2024-03-14T20:55:08.126Z,13.29
2024-03-14T21:00:25.340Z,13.26
2024-03-14T21:05:27.589Z,13.34
2024-03-14T21:10:35.237Z,13.41
2024-03-14T21:15:39.922Z,13.45
2024-03-14T21:20:43.331Z,13.46
2024-03-14T21:25:49.027Z,13.43
2024-03-14T21:30:53.082Z,13.37
2024-03-14T21:35:54.982Z,13.30
2024-03-14T21:40:57.373Z,13.22
2024-03-14T21:45:59.519Z,13.18
2024-03-14T21:51:02.181Z,13.08
2024-03-14T21:56:04.557Z,12.99
2024-03-14T22:01:07.273Z,12.92
2024-03-14T22:06:09.413Z,12.82
2024-03-14T22:11:13.375Z,12.76
2024-03-14T22:16:15.442Z,12.66
2024-03-14T22:21:17.259Z,12.57
2024-03-14T22:26:19.192Z,12.49
2024-03-14T22:31:21.056Z,12.45
2024-03-14T22:36:22.960Z,12.44
2024-03-14T22:41:26.261Z,12.42
2024-03-14T22:46:27.957Z,12.42
2024-03-14T22:51:29.903Z,12.39
2024-03-14T22:56:31.663Z,12.35
2024-03-14T23:01:38.636Z,12.31
2024-03-14T23:06:41.757Z,12.23
2024-03-14T23:11:44.101Z,12.10
2024-03-14T23:16:46.787Z,12.03
2024-03-14T23:21:49.875Z,11.89
2024-03-14T23:26:51.760Z,11.82
2024-03-14T23:31:53.657Z,11.86
2024-03-14T23:36:55.360Z,11.88
2024-03-14T23:41:57.664Z,11.96
2024-03-14T23:47:00.802Z,12.05
2024-03-14T23:52:02.515Z,12.19
2024-03-14T23:57:04.764Z,12.31
